QFA124 NZQN-YSSY
Flight info
| Callsign | QFA124 |
|---|---|
| Flight time | N/A |
| Altitude | 38000 |
| Route | ADKOS P766 TONIM DCT RIKNI N774 MARLN |
| Aircraft | B38M/M-SDE1FGHILORVWXY/HB1 |
Departure
| Time | N/A |
|---|---|
| Airport | Queenstown Airport (NZQN) |
Arrival
| Time | 2026-04-24 03:56 |
|---|---|
| Airport | Sydney Kingsford Smith International Airport (YSSY) |
| Time | Latitude | Longitude | Altitude | Speed | Heading |
|---|---|---|---|---|---|
| 2026-04-24 03:04 | -36.76142 | 155.22119 | 38439 ft | 454 kts | 315° |
| 2026-04-24 03:04 | -36.71623 | 155.16635 | 38439 ft | 453 kts | 316° |
| 2026-04-24 03:05 | -36.67113 | 155.11161 | 38445 ft | 453 kts | 316° |
| 2026-04-24 03:05 | -36.62596 | 155.05695 | 38446 ft | 453 kts | 316° |
| 2026-04-24 03:06 | -36.58078 | 155.00242 | 38453 ft | 453 kts | 316° |
| 2026-04-24 03:06 | -36.53563 | 154.94788 | 38454 ft | 453 kts | 316° |
| 2026-04-24 03:07 | -36.49040 | 154.89344 | 38454 ft | 453 kts | 316° |
| 2026-04-24 03:07 | -36.44525 | 154.83916 | 38454 ft | 449 kts | 316° |
| 2026-04-24 03:08 | -36.37852 | 154.75908 | 38452 ft | 446 kts | 316° |
| 2026-04-24 03:09 | -36.33385 | 154.70562 | 38452 ft | 447 kts | 316° |
| 2026-04-24 03:09 | -36.28903 | 154.65208 | 38452 ft | 447 kts | 316° |
| 2026-04-24 03:10 | -36.24429 | 154.59868 | 38453 ft | 447 kts | 316° |
| 2026-04-24 03:10 | -36.19951 | 154.54535 | 38452 ft | 447 kts | 316° |
| 2026-04-24 03:11 | -36.15474 | 154.49208 | 38452 ft | 446 kts | 316° |
| 2026-04-24 03:11 | -36.11001 | 154.43900 | 38454 ft | 445 kts | 316° |
| 2026-04-24 03:12 | -36.06548 | 154.38625 | 38458 ft | 442 kts | 316° |
| 2026-04-24 03:12 | -36.02012 | 154.33544 | 38472 ft | 439 kts | 323° |
| 2026-04-24 03:13 | -35.97154 | 154.28941 | 38460 ft | 440 kts | 323° |
| 2026-04-24 03:13 | -35.92279 | 154.24386 | 38462 ft | 440 kts | 323° |
| 2026-04-24 03:14 | -35.87408 | 154.19815 | 38461 ft | 440 kts | 323° |
| 2026-04-24 03:14 | -35.82543 | 154.15254 | 38458 ft | 440 kts | 323° |
| 2026-04-24 03:15 | -35.77663 | 154.10694 | 38461 ft | 440 kts | 323° |
| 2026-04-24 03:15 | -35.72825 | 154.06180 | 38461 ft | 439 kts | 323° |
| 2026-04-24 03:16 | -35.67954 | 154.01637 | 38460 ft | 440 kts | 323° |
| 2026-04-24 03:16 | -35.63073 | 153.97096 | 38461 ft | 440 kts | 323° |
| 2026-04-24 03:17 | -35.58180 | 153.92551 | 38461 ft | 442 kts | 323° |
| 2026-04-24 03:17 | -35.53259 | 153.87984 | 38467 ft | 443 kts | 323° |
| 2026-04-24 03:18 | -35.48353 | 153.83444 | 38467 ft | 442 kts | 324° |
| 2026-04-24 03:18 | -35.43439 | 153.78902 | 38473 ft | 442 kts | 323° |
| 2026-04-24 03:19 | -35.38519 | 153.74352 | 38474 ft | 443 kts | 324° |
| 2026-04-24 03:19 | -35.33582 | 153.69804 | 38475 ft | 444 kts | 324° |
| 2026-04-24 03:20 | -35.28638 | 153.65255 | 38484 ft | 445 kts | 324° |
| 2026-04-24 03:20 | -35.23684 | 153.60701 | 38491 ft | 446 kts | 324° |
| 2026-04-24 03:21 | -35.18722 | 153.56147 | 38491 ft | 446 kts | 324° |
| 2026-04-24 03:21 | -35.13748 | 153.51593 | 38490 ft | 448 kts | 324° |
| 2026-04-24 03:22 | -35.08800 | 153.47067 | 38486 ft | 448 kts | 324° |
| 2026-04-24 03:22 | -35.03808 | 153.42509 | 38491 ft | 449 kts | 324° |
| 2026-04-24 03:23 | -34.98802 | 153.37945 | 38489 ft | 449 kts | 324° |
| 2026-04-24 03:23 | -34.93797 | 153.33387 | 38489 ft | 449 kts | 324° |
| 2026-04-24 03:24 | -34.88774 | 153.28821 | 37888 ft | 451 kts | 324° |
| 2026-04-24 03:24 | -34.86261 | 153.26541 | 37380 ft | 449 kts | 324° |
| 2026-04-24 03:24 | -34.83765 | 153.24275 | 36878 ft | 447 kts | 324° |
| 2026-04-24 03:24 | -34.81281 | 153.22023 | 36396 ft | 444 kts | 324° |
| 2026-04-24 03:25 | -34.78810 | 153.19784 | 35918 ft | 441 kts | 324° |
| 2026-04-24 03:25 | -34.76351 | 153.17560 | 35438 ft | 439 kts | 325° |
| 2026-04-24 03:25 | -34.73916 | 153.15357 | 34969 ft | 435 kts | 325° |
| 2026-04-24 03:25 | -34.71497 | 153.13172 | 34501 ft | 432 kts | 325° |
| 2026-04-24 03:26 | -34.69092 | 153.11000 | 34030 ft | 429 kts | 326° |
| 2026-04-24 03:26 | -34.66708 | 153.08849 | 33571 ft | 424 kts | 326° |
| 2026-04-24 03:26 | -34.64349 | 153.06721 | 33115 ft | 420 kts | 326° |
| 2026-04-24 03:26 | -34.62013 | 153.04616 | 32664 ft | 416 kts | 326° |
| 2026-04-24 03:27 | -34.59700 | 153.02533 | 32213 ft | 412 kts | 326° |
| 2026-04-24 03:27 | -34.57411 | 153.00473 | 31769 ft | 408 kts | 326° |
| 2026-04-24 03:27 | -34.55145 | 152.98436 | 31333 ft | 403 kts | 326° |
| 2026-04-24 03:27 | -34.52900 | 152.96418 | 30898 ft | 399 kts | 326° |
| 2026-04-24 03:28 | -34.50683 | 152.94428 | 30466 ft | 394 kts | 326° |
| 2026-04-24 03:28 | -34.48488 | 152.92458 | 30052 ft | 393 kts | 326° |
| 2026-04-24 03:28 | -34.46278 | 152.90479 | 29624 ft | 397 kts | 326° |
| 2026-04-24 03:28 | -34.44079 | 152.88510 | 29189 ft | 399 kts | 326° |
| 2026-04-24 03:29 | -34.41851 | 152.86513 | 28762 ft | 398 kts | 326° |
| 2026-04-24 03:29 | -34.39635 | 152.84527 | 28332 ft | 394 kts | 326° |
| 2026-04-24 03:29 | -34.37443 | 152.82566 | 27918 ft | 389 kts | 326° |
| 2026-04-24 03:29 | -34.35277 | 152.80631 | 27490 ft | 384 kts | 326° |
| 2026-04-24 03:30 | -34.33136 | 152.78720 | 27073 ft | 379 kts | 326° |
| 2026-04-24 03:30 | -34.31027 | 152.76839 | 26659 ft | 374 kts | 325° |
| 2026-04-24 03:30 | -34.28942 | 152.74978 | 26267 ft | 370 kts | 325° |
| 2026-04-24 03:30 | -34.26890 | 152.73149 | 25869 ft | 366 kts | 325° |
| 2026-04-24 03:31 | -34.24823 | 152.71309 | 25476 ft | 371 kts | 325° |
| 2026-04-24 03:31 | -34.22735 | 152.69453 | 25071 ft | 373 kts | 325° |
| 2026-04-24 03:31 | -34.20647 | 152.67596 | 24665 ft | 372 kts | 325° |
| 2026-04-24 03:31 | -34.18577 | 152.65754 | 24259 ft | 367 kts | 325° |
| 2026-04-24 03:32 | -34.16542 | 152.63941 | 23867 ft | 361 kts | 325° |
| 2026-04-24 03:32 | -34.14532 | 152.62156 | 23479 ft | 356 kts | 325° |
| 2026-04-24 03:32 | -34.12549 | 152.60397 | 23097 ft | 351 kts | 325° |
| 2026-04-24 03:32 | -34.10625 | 152.58609 | 22719 ft | 349 kts | 318° |
| 2026-04-24 03:33 | -34.09035 | 152.56329 | 22372 ft | 361 kts | 301° |
| 2026-04-24 03:33 | -34.08029 | 152.53584 | 21999 ft | 356 kts | 283° |
| 2026-04-24 03:33 | -34.07626 | 152.50672 | 21606 ft | 350 kts | 276° |
| 2026-04-24 03:33 | -34.07349 | 152.47776 | 21193 ft | 345 kts | 275° |
| 2026-04-24 03:34 | -34.07108 | 152.44915 | 20803 ft | 341 kts | 274° |
| 2026-04-24 03:34 | -34.06864 | 152.42093 | 20440 ft | 336 kts | 275° |
| 2026-04-24 03:34 | -34.06606 | 152.39293 | 20086 ft | 339 kts | 275° |
| 2026-04-24 03:34 | -34.06330 | 152.36426 | 19713 ft | 346 kts | 276° |
| 2026-04-24 03:35 | -34.06052 | 152.33563 | 19328 ft | 341 kts | 276° |
| 2026-04-24 03:35 | -34.05781 | 152.30747 | 18960 ft | 336 kts | 276° |
| 2026-04-24 03:35 | -34.05516 | 152.27965 | 18595 ft | 331 kts | 276° |
| 2026-04-24 03:35 | -34.05256 | 152.25228 | 18242 ft | 327 kts | 276° |
| 2026-04-24 03:36 | -34.04998 | 152.22523 | 17891 ft | 323 kts | 276° |
| 2026-04-24 03:36 | -34.04737 | 152.19799 | 17546 ft | 332 kts | 276° |
| 2026-04-24 03:36 | -34.04469 | 152.17023 | 17176 ft | 332 kts | 276° |
| 2026-04-24 03:36 | -34.04203 | 152.14279 | 16819 ft | 327 kts | 276° |
| 2026-04-24 03:37 | -34.03941 | 152.11576 | 16465 ft | 322 kts | 276° |
| 2026-04-24 03:37 | -34.03682 | 152.08907 | 16120 ft | 318 kts | 276° |
| 2026-04-24 03:37 | -34.03428 | 152.06281 | 15779 ft | 313 kts | 276° |
| 2026-04-24 03:37 | -34.03173 | 152.03688 | 15434 ft | 310 kts | 276° |
| 2026-04-24 03:38 | -34.02912 | 152.01090 | 15109 ft | 318 kts | 276° |
| 2026-04-24 03:38 | -34.02734 | 151.99335 | 14864 ft | 319 kts | 276° |
| 2026-04-24 03:38 | -34.02378 | 151.95810 | 14415 ft | 314 kts | 276° |
| 2026-04-24 03:38 | -34.02204 | 151.94091 | 14189 ft | 311 kts | 276° |
| 2026-04-24 03:39 | -34.01860 | 151.90702 | 13750 ft | 305 kts | 276° |
| 2026-04-24 03:39 | -34.01606 | 151.88189 | 13422 ft | 300 kts | 276° |
| 2026-04-24 03:39 | -34.01436 | 151.86511 | 13214 ft | 297 kts | 276° |
| 2026-04-24 03:39 | -34.01099 | 151.83188 | 12776 ft | 306 kts | 276° |
| 2026-04-24 03:40 | -34.00841 | 151.80650 | 12446 ft | 304 kts | 276° |
| 2026-04-24 03:40 | -34.00584 | 151.78138 | 12121 ft | 300 kts | 276° |
| 2026-04-24 03:40 | -34.00332 | 151.75664 | 11801 ft | 296 kts | 276° |
| 2026-04-24 03:40 | -34.00082 | 151.73225 | 11483 ft | 292 kts | 276° |
| 2026-04-24 03:41 | -33.99834 | 151.70813 | 11165 ft | 288 kts | 276° |
| 2026-04-24 03:41 | -33.99667 | 151.69207 | 10956 ft | 284 kts | 276° |
| 2026-04-24 03:41 | -33.99420 | 151.66802 | 10651 ft | 295 kts | 277° |
| 2026-04-24 03:41 | -33.99168 | 151.64367 | 10334 ft | 290 kts | 277° |
| 2026-04-24 03:42 | -33.98919 | 151.61966 | 10022 ft | 287 kts | 277° |
| 2026-04-24 03:42 | -33.98677 | 151.59636 | 9717 ft | 282 kts | 277° |
| 2026-04-24 03:42 | -33.98434 | 151.57286 | 9243 ft | 284 kts | 277° |
| 2026-04-24 03:42 | -33.98190 | 151.54935 | 8911 ft | 282 kts | 278° |
| 2026-04-24 03:43 | -33.97948 | 151.52620 | 8659 ft | 275 kts | 278° |
| 2026-04-24 03:43 | -33.97711 | 151.50353 | 8452 ft | 271 kts | 278° |
| 2026-04-24 03:43 | -33.97474 | 151.48093 | 8280 ft | 273 kts | 278° |
| 2026-04-24 03:43 | -33.97235 | 151.45826 | 8102 ft | 274 kts | 278° |
| 2026-04-24 03:44 | -33.96994 | 151.43540 | 7925 ft | 275 kts | 278° |
| 2026-04-24 03:44 | -33.96755 | 151.41251 | 7746 ft | 275 kts | 278° |
| 2026-04-24 03:44 | -33.96516 | 151.38964 | 7576 ft | 274 kts | 278° |
| 2026-04-24 03:44 | -33.96279 | 151.36695 | 7401 ft | 273 kts | 278° |
| 2026-04-24 03:45 | -33.96029 | 151.34439 | 7230 ft | 270 kts | 283° |
| 2026-04-24 03:45 | -33.95135 | 151.32511 | 7082 ft | 265 kts | 319° |
| 2026-04-24 03:45 | -33.93592 | 151.31323 | 6963 ft | 264 kts | 337° |
| 2026-04-24 03:45 | -33.91875 | 151.30561 | 6868 ft | 263 kts | 345° |
| 2026-04-24 03:46 | -33.90109 | 151.29986 | 6801 ft | 262 kts | 348° |
| 2026-04-24 03:46 | -33.88340 | 151.29492 | 6785 ft | 262 kts | 349° |
| 2026-04-24 03:46 | -33.86548 | 151.29027 | 6785 ft | 263 kts | 349° |
| 2026-04-24 03:46 | -33.84756 | 151.28577 | 6801 ft | 264 kts | 350° |
| 2026-04-24 03:47 | -33.82953 | 151.28129 | 6810 ft | 265 kts | 350° |
| 2026-04-24 03:47 | -33.81146 | 151.27680 | 6809 ft | 265 kts | 349° |
| 2026-04-24 03:47 | -33.79356 | 151.27236 | 6791 ft | 260 kts | 350° |
| 2026-04-24 03:47 | -33.77603 | 151.26801 | 6459 ft | 258 kts | 349° |
| 2026-04-24 03:48 | -33.75830 | 151.26364 | 6056 ft | 260 kts | 350° |
| 2026-04-24 03:48 | -33.74061 | 151.25932 | 6025 ft | 260 kts | 350° |
| 2026-04-24 03:48 | -33.72287 | 151.25500 | 6020 ft | 261 kts | 349° |
| 2026-04-24 03:48 | -33.70503 | 151.25066 | 6012 ft | 261 kts | 350° |
| 2026-04-24 03:49 | -33.68727 | 151.24629 | 6012 ft | 261 kts | 347° |
| 2026-04-24 03:49 | -33.67169 | 151.23584 | 6014 ft | 256 kts | 313° |
| 2026-04-24 03:49 | -33.66421 | 151.21729 | 6006 ft | 245 kts | 282° |
| 2026-04-24 03:49 | -33.66295 | 151.19723 | 6003 ft | 240 kts | 268° |
| 2026-04-24 03:50 | -33.66421 | 151.17772 | 5951 ft | 230 kts | 263° |
| 2026-04-24 03:50 | -33.66639 | 151.15943 | 5817 ft | 221 kts | 261° |
| 2026-04-24 03:50 | -33.67026 | 151.14172 | 5458 ft | 221 kts | 239° |
| 2026-04-24 03:50 | -33.68075 | 151.12843 | 5084 ft | 220 kts | 214° |
| 2026-04-24 03:51 | -33.69385 | 151.11912 | 4714 ft | 220 kts | 204° |
| 2026-04-24 03:51 | -33.70829 | 151.11369 | 4404 ft | 216 kts | 186° |
| 2026-04-24 03:51 | -33.72304 | 151.11333 | 4128 ft | 208 kts | 172° |
| 2026-04-24 03:51 | -33.73717 | 151.11642 | 3837 ft | 208 kts | 163° |
| 2026-04-24 03:52 | -33.75102 | 151.12138 | 3571 ft | 207 kts | 160° |
| 2026-04-24 03:52 | -33.76474 | 151.12662 | 3293 ft | 207 kts | 161° |
| 2026-04-24 03:52 | -33.77853 | 151.13142 | 3011 ft | 206 kts | 162° |
| 2026-04-24 03:52 | -33.79234 | 151.13571 | 2758 ft | 204 kts | 164° |
| 2026-04-24 03:53 | -33.80601 | 151.13963 | 2499 ft | 198 kts | 165° |
| 2026-04-24 03:53 | -33.81893 | 151.14306 | 2225 ft | 182 kts | 166° |
| 2026-04-24 03:53 | -33.83072 | 151.14606 | 2001 ft | 166 kts | 166° |
| 2026-04-24 03:53 | -33.84189 | 151.14888 | 1794 ft | 162 kts | 167° |
| 2026-04-24 03:54 | -33.85281 | 151.15164 | 1582 ft | 160 kts | 167° |
| 2026-04-24 03:54 | -33.86358 | 151.15442 | 1371 ft | 157 kts | 167° |
| 2026-04-24 03:54 | -33.87422 | 151.15721 | 1160 ft | 155 kts | 167° |
| 2026-04-24 03:54 | -33.88467 | 151.15997 | 944 ft | 149 kts | 167° |
| 2026-04-24 03:55 | -33.89454 | 151.16255 | 778 ft | 143 kts | 167° |
| 2026-04-24 03:55 | -33.90410 | 151.16509 | 562 ft | 142 kts | 166° |
| 2026-04-24 03:55 | -33.91378 | 151.16773 | 350 ft | 140 kts | 168° |
| 2026-04-24 03:55 | -33.92322 | 151.17003 | 171 ft | 140 kts | 167° |
| 2026-04-24 03:56 | -33.93266 | 151.17248 | 45 ft | 137 kts | 167° |
| 2026-04-24 03:56 | -33.94070 | 151.17454 | 27 ft | 86 kts | 168° |
| 2026-04-24 03:56 | -33.94473 | 151.17558 | 29 ft | 51 kts | 167° |
| 2026-04-24 03:56 | -33.94702 | 151.17611 | 29 ft | 17 kts | 192° |
| 2026-04-24 03:57 | -33.94744 | 151.17492 | 29 ft | 17 kts | 281° |
| 2026-04-24 03:57 | -33.94668 | 151.17404 | 30 ft | 16 kts | 347° |
| 2026-04-24 03:57 | -33.94554 | 151.17375 | 30 ft | 17 kts | 348° |
| 2026-04-24 03:57 | -33.94435 | 151.17343 | 29 ft | 18 kts | 347° |
| 2026-04-24 03:58 | -33.94309 | 151.17310 | 29 ft | 19 kts | 347° |
| 2026-04-24 03:58 | -33.94174 | 151.17274 | 28 ft | 21 kts | 347° |
| 2026-04-24 03:58 | -33.94031 | 151.17240 | 28 ft | 21 kts | 349° |
| 2026-04-24 03:58 | -33.93886 | 151.17202 | 28 ft | 22 kts | 347° |
| 2026-04-24 03:59 | -33.93736 | 151.17163 | 28 ft | 22 kts | 347° |
| 2026-04-24 03:59 | -33.93584 | 151.17123 | 29 ft | 23 kts | 347° |
| 2026-04-24 03:59 | -33.93429 | 151.17085 | 29 ft | 23 kts | 348° |
| 2026-04-24 03:59 | -33.93304 | 151.17019 | 27 ft | 14 kts | 316° |
| 2026-04-24 04:00 | -33.93286 | 151.16951 | 29 ft | 9 kts | 262° |
| 2026-04-24 04:00 | -33.93329 | 151.16910 | 29 ft | 8 kts | 171° |
| 2026-04-24 04:00 | -33.93369 | 151.16953 | 29 ft | 7 kts | 131° |
| 2026-04-24 04:00 | -33.93379 | 151.16967 | 29 ft | 0 kts | 130° |